Аэропорт: Елизово. Петропавловск-Камчатский

ICAO: UHPP

METAR:
2021-04-21 19:00:00
UHPP 211900Z 18003MPS 9999 SCT033CB BKN047 02/02 Q1023 R16R/CLRD70 NOSIG RMK MT OBSC QFE764/1018
METAR:
2021-04-21 16:51:00
TAF UHPP 211651Z 2118/2224 24003G12MPS 9999 BKN030CB TEMPO 2118/2206 1000 SHRA BR VV003